EKCHESSB

Guest
Details From EKCH - Kastrup
To ESSB - Bromma
Flight Number -
Tags Generated
Created
Modified
Stats Distance 282 nm / 522 km
Max Altitude 0 ft / 0 m
Waypoints 3
Social Downloads 1
Likes 0
Share VATSIM

Download

Looking for another format? Having issues loading an existing format? Contact us
Advertisement - Login to hide

Notes

Generated

Route

EKCH R2273 ESSB

ID Type Via Altitude Latitude Longitude Leg Dist Tot Dist Heading (true) Name
O EKCH APT - 0 ft / 0 m 55.62761˚ 12.62973˚ - 0 nm - -
R2273 FIX - 0 ft / 0 m 59.35867˚ 17.92964˚ 281 nm 281 nm 35° / 40° -
O ESSB APT - 0 ft / 0 m 59.35867˚ 17.92964˚ 0 nm 281 nm 0° / 180° -

Altitude Profile

Advertisement - Login to hide

Weather


0- 5 10 15 20 25 30 35+ Temperature / ° C

Clouds and Precipitation
Forecast for 2017-12-14 18:00 UTC. Updated 12 minutes ago

Ground ~20,000 ft ~40,000 ft Winds

EKCH

Details ICAO EKCH (CPH)
Name Kastrup
Region Denmark / Faroe Islands
Timezone Europe/Copenhagen (UTC+1.0)
Stats Elevation 17 ft / 5 m (AMSL)
Location 55.612915° 12.640961°
Runways 3
Magnetic Variation 3.724° E

METAR

EKCH 141320Z 25017KT 9999 FEW019 BKN023 05/02 Q0981 NOSIG

Decode

TAF

TAF EKCH 141111Z 1412/1512 24015KT 9999 BKN020 TEMPO 1412/1417 25018G28KT TEMPO 1418/1509 BKN008 TEMPO 1509/1512 SHRA BKN008 SCT020CB

Decode

Departure Runways

ID Width Length Bearing (true) Bearing (mag) Surface Threshold Offset Overrun Length
04L 148 ft / 45 m 11,848 ft / 3,611 m 41.15° 37.43° Asphalt 0 ft / 0 m 0 ft / 0 m
04R 148 ft / 45 m 10,814 ft / 3,296 m 41.15° 37.43° Asphalt 0 ft / 0 m 0 ft / 0 m
12 148 ft / 45 m 10,047 ft / 3,063 m 123.21° 119.49° Asphalt 2,313 ft / 705 m 0 ft / 0 m
22L 148 ft / 45 m 10,814 ft / 3,296 m 221.17° 217.45° Asphalt 0 ft / 0 m 0 ft / 0 m
22R 148 ft / 45 m 11,848 ft / 3,611 m 221.18° 217.46° Asphalt 2,018 ft / 615 m 0 ft / 0 m
30 148 ft / 45 m 10,047 ft / 3,063 m 303.25° 299.53° Asphalt 886 ft / 270 m 0 ft / 0 m

ESSB

Details ICAO ESSB (BMA)
Name BROMMA
Region Sweden
Timezone Europe/Stockholm (UTC+1.0)
Stats Elevation 47 ft / 14 m (AMSL)
Location 59.354389° 17.941604°
Runways 1
Magnetic Variation 6.050° E

METAR

ESSB 141320Z 11009KT 5000 -DZ BKN006 01/01 Q0983 R12/29//68

Decode

TAF

Not found

Destination Runways

ID Width Length Bearing (true) Bearing (mag) Surface Threshold Offset Overrun Length
12 148 ft / 45 m 6,201 ft / 1,890 m 125.06° 119.01° Asphalt 381 ft / 116 m 0 ft / 0 m
30 148 ft / 45 m 6,201 ft / 1,890 m 305.09° 299.04° Asphalt 361 ft / 110 m 0 ft / 0 m

Approach Navaids

Runway Type Ident Frequency Range Bearing (true) Bearing (mag) Slope Elevation
12 Localiser SB 110.30 MHz 18 nm / 33 km 125.06° 119.01° - 40 ft / 12 m (AMSL)
12 Glidescope SB 110.30 MHz 10 nm / 19 km 125.07° 119.02° 3.50° 45 ft / 14 m (AMSL)
30 Localiser SBA 109.70 MHz 18 nm / 33 km 305.04° 298.99° - 45 ft / 14 m (AMSL)
30 Glidescope SBA 109.70 MHz 10 nm / 19 km 305.07° 299.02° 3.50° 40 ft / 12 m (AMSL)

Popular Alternatives